createdAt,value
2018-05-15T00:04:39.168Z,1.5
2018-05-15T00:10:34.211Z,1.27
2018-05-15T00:16:29.202Z,1.77
2018-05-15T00:22:24.147Z,1.22
2018-05-15T00:28:19.237Z,1.6
2018-05-15T00:34:14.189Z,1.45
2018-05-15T00:40:09.168Z,1.39
2018-05-15T00:46:04.243Z,1.32
2018-05-15T00:51:59.191Z,1.44
2018-05-15T00:57:54.172Z,1.43
2018-05-15T01:03:49.270Z,1.51
2018-05-15T01:09:44.235Z,1.45
2018-05-15T01:15:39.211Z,1.49
2018-05-15T01:21:34.241Z,1.6
2018-05-15T01:27:29.282Z,1.69
2018-05-15T01:33:24.332Z,1.29
2018-05-15T01:39:19.297Z,1.55
2018-05-15T01:45:14.195Z,1.44
2018-05-15T01:51:09.225Z,1.41
2018-05-15T01:57:04.233Z,1.46
2018-05-15T02:02:59.261Z,1.52
2018-05-15T02:08:54.272Z,1.46
2018-05-15T02:14:49.210Z,1.56
2018-05-15T02:20:44.262Z,1.53
2018-05-15T02:26:39.254Z,2.11
2018-05-15T02:32:34.251Z,2.24
2018-05-15T02:38:29.253Z,2.08
2018-05-15T02:44:24.252Z,1.95
2018-05-15T02:50:19.249Z,1.7
2018-05-15T02:56:14.269Z,1.87
2018-05-15T03:02:09.300Z,1.81
2018-05-15T03:08:04.282Z,2.34
2018-05-15T03:13:59.303Z,3.02
2018-05-15T03:19:54.248Z,2.38
2018-05-15T03:25:49.317Z,2.72
2018-05-15T03:31:44.311Z,2.41
2018-05-15T03:37:39.310Z,2.44
2018-05-15T03:43:34.271Z,2.49
2018-05-15T03:49:29.307Z,2
2018-05-15T03:55:24.294Z,2.67
2018-05-15T04:01:19.298Z,2.64
2018-05-15T04:07:14.310Z,2.39
2018-05-15T04:13:09.282Z,2.12
2018-05-15T04:19:04.277Z,2.6
2018-05-15T04:24:59.334Z,2.82
2018-05-15T04:30:54.291Z,2.7
2018-05-15T04:36:49.432Z,3.24
2018-05-15T04:42:44.362Z,2.76
2018-05-15T04:48:39.306Z,3.62
2018-05-15T04:54:34.322Z,3.76
2018-05-15T05:00:29.318Z,3.67
2018-05-15T05:06:24.316Z,2.99
2018-05-15T05:12:19.320Z,3.96
2018-05-15T05:18:14.365Z,4.59
2018-05-15T05:24:09.356Z,4.38
2018-05-15T05:30:04.346Z,4.51
2018-05-15T05:35:59.397Z,4.6
2018-05-15T05:41:54.363Z,4.21
2018-05-15T05:47:49.357Z,4.8
2018-05-15T05:53:44.380Z,4.33
2018-05-15T05:59:39.352Z,4.28
2018-05-15T06:05:34.344Z,4.3
2018-05-15T06:11:29.371Z,4.5
2018-05-15T06:17:24.352Z,3.89
2018-05-15T06:23:19.342Z,4.11
2018-05-15T06:29:14.366Z,3.99
2018-05-15T06:35:09.448Z,4.38
2018-05-15T06:41:04.372Z,4.41
2018-05-15T06:46:59.364Z,3.1
2018-05-15T06:52:55.832Z,2.54
2018-05-15T06:58:49.412Z,1.7
2018-05-15T07:04:44.417Z,2.29
2018-05-15T07:10:39.396Z,2.28
2018-05-15T07:16:34.416Z,2.15
2018-05-15T07:22:29.420Z,1.97
2018-05-15T07:28:24.404Z,3.1
2018-05-15T07:34:19.464Z,3.88
2018-05-15T07:40:14.444Z,5.29
2018-05-15T07:46:09.463Z,5.76
2018-05-15T07:52:04.467Z,4.12
2018-05-15T07:57:59.423Z,3.08
2018-05-15T08:03:54.442Z,2.47
2018-05-15T08:09:49.621Z,1.9
2018-05-15T08:15:44.466Z,1.78
2018-05-15T08:21:39.460Z,1.96
2018-05-15T08:27:34.470Z,1.94
2018-05-15T08:33:29.483Z,2.64
2018-05-15T08:39:24.428Z,1.94
2018-05-15T08:45:19.589Z,1.76
2018-05-15T08:51:14.497Z,2.32
2018-05-15T08:57:09.512Z,1.8
2018-05-15T09:03:04.534Z,1.67
2018-05-15T09:08:59.479Z,1.12
2018-05-15T09:14:54.504Z,0.86
2018-05-15T09:20:49.490Z,1.09
2018-05-15T09:26:44.492Z,1.01
2018-05-15T09:32:39.539Z,1.05
2018-05-15T09:38:34.533Z,1.14
2018-05-15T09:44:29.545Z,1.41
2018-05-15T09:50:24.516Z,1.61
2018-05-15T09:56:19.516Z,1.73
2018-05-15T10:02:14.550Z,1.65
2018-05-15T10:08:09.667Z,1.46
2018-05-15T10:14:04.644Z,1.12
2018-05-15T10:19:59.625Z,1.35
2018-05-15T10:25:54.532Z,1.4
2018-05-15T10:31:49.553Z,1.27
2018-05-15T10:37:44.544Z,0.82
2018-05-15T10:43:39.548Z,1.1
2018-05-15T10:49:34.571Z,0.87
2018-05-15T10:55:29.582Z,0.97
2018-05-15T11:01:24.584Z,1.05
2018-05-15T11:07:19.557Z,0.93
2018-05-15T11:13:14.560Z,0.78
2018-05-15T11:19:09.606Z,1.01
2018-05-15T11:25:04.563Z,0.74
2018-05-15T11:30:59.582Z,0.74
2018-05-15T11:36:54.582Z,0.68
2018-05-15T11:42:49.591Z,0.75
2018-05-15T11:48:45.327Z,0.75
2018-05-15T11:54:39.706Z,0.91
2018-05-15T12:00:34.613Z,0.93
2018-05-15T12:06:29.743Z,0.67
2018-05-15T12:12:24.689Z,0.57
2018-05-15T12:18:19.618Z,1.08
2018-05-15T12:24:14.631Z,0.75
2018-05-15T12:30:09.655Z,0.73
2018-05-15T12:36:04.637Z,0.77
2018-05-15T12:41:59.787Z,0.78
2018-05-15T12:47:54.704Z,0.63
2018-05-15T12:53:49.659Z,0.79
2018-05-15T12:59:44.689Z,0.82
2018-05-15T13:05:39.853Z,0.68
2018-05-15T13:11:34.694Z,0.73
2018-05-15T13:17:29.824Z,0.6
2018-05-15T13:23:24.721Z,0.58
2018-05-15T13:29:19.683Z,0.73
2018-05-15T13:35:14.693Z,0.5
2018-05-15T13:41:09.794Z,0.46
2018-05-15T13:47:04.696Z,0.46
2018-05-15T13:52:59.658Z,0.42
2018-05-15T13:58:54.715Z,0.72
2018-05-15T14:04:49.711Z,0.64
2018-05-15T14:10:44.711Z,0.7
2018-05-15T14:16:39.710Z,0.51
2018-05-15T14:22:34.714Z,0.56
2018-05-15T14:28:29.755Z,0.73
2018-05-15T14:34:24.723Z,0.56
2018-05-15T14:40:19.761Z,0.6
2018-05-15T14:46:14.765Z,0.61
2018-05-15T14:52:09.727Z,0.67
2018-05-15T14:58:04.726Z,0.49
2018-05-15T15:03:59.813Z,0.74
2018-05-15T15:09:54.754Z,0.56
2018-05-15T15:15:49.754Z,0.75
2018-05-15T15:21:44.766Z,0.64
2018-05-15T15:27:39.775Z,0.81
2018-05-15T15:33:34.761Z,0.7
2018-05-15T15:39:29.784Z,0.9
2018-05-15T15:45:24.765Z,0.92
2018-05-15T15:51:19.801Z,1.05
2018-05-15T15:57:14.759Z,0.99
2018-05-15T16:03:09.776Z,0.83
2018-05-15T16:09:04.790Z,0.91
2018-05-15T16:14:59.778Z,1.01
2018-05-15T16:20:54.795Z,0.86
2018-05-15T16:26:49.849Z,1.01
2018-05-15T16:32:44.874Z,1.24
2018-05-15T16:38:39.805Z,0.91
2018-05-15T16:44:34.823Z,1.21
2018-05-15T16:50:29.811Z,1.28
2018-05-15T16:56:24.785Z,0.88
2018-05-15T17:02:19.890Z,1.09
2018-05-15T17:08:14.899Z,0.94
2018-05-15T17:14:09.808Z,1.07
2018-05-15T17:20:05.079Z,1.32
2018-05-15T17:25:59.837Z,1.35
2018-05-15T17:31:54.877Z,1.28
2018-05-15T17:37:49.833Z,1.03
2018-05-15T17:43:44.898Z,1.25
2018-05-15T17:49:39.957Z,1.2
2018-05-15T17:55:34.849Z,1.18
2018-05-15T18:01:29.881Z,1.22
2018-05-15T18:07:24.879Z,1.04
2018-05-15T18:13:19.867Z,1.22
2018-05-15T18:19:14.841Z,1.15
2018-05-15T18:25:09.850Z,0.97
2018-05-15T18:31:04.915Z,1.14
2018-05-15T18:36:59.971Z,1.05
2018-05-15T18:42:54.893Z,1.11
2018-05-15T18:48:49.899Z,1.09
2018-05-15T18:54:44.855Z,1.56
2018-05-15T19:00:39.928Z,1.5
2018-05-15T19:06:34.922Z,1.34
2018-05-15T19:12:29.905Z,1.48
2018-05-15T19:18:24.914Z,1.46
2018-05-15T19:24:20.140Z,1.39
2018-05-15T19:30:15.027Z,1.48
2018-05-15T19:36:09.934Z,1.56
2018-05-15T19:42:04.941Z,1.65
2018-05-15T19:47:59.888Z,2.04
2018-05-15T19:53:54.894Z,1.95
2018-05-15T19:59:49.920Z,1.63
2018-05-15T20:05:44.964Z,1.77
2018-05-15T20:11:39.900Z,1.51
2018-05-15T20:17:34.982Z,1.37
2018-05-15T20:23:29.922Z,1.53
2018-05-15T20:29:24.959Z,1.53
2018-05-15T20:35:19.992Z,1.46
2018-05-15T20:41:14.958Z,2.35
2018-05-15T20:47:09.944Z,1.51
2018-05-15T20:53:05.008Z,1.41
2018-05-15T20:58:59.956Z,1.36
2018-05-15T21:04:55.193Z,1.3
2018-05-15T21:10:50.006Z,1.34
2018-05-15T21:16:44.979Z,1.5
2018-05-15T21:22:39.969Z,1.79
2018-05-15T21:28:34.990Z,1.85
2018-05-15T21:34:30.000Z,1.64
2018-05-15T21:40:24.972Z,1.62
2018-05-15T21:46:19.993Z,1.57
2018-05-15T21:52:15.004Z,2.08
2018-05-15T21:58:09.993Z,1.9
2018-05-15T22:04:05.008Z,1.69
2018-05-15T22:10:00.017Z,1.82
2018-05-15T22:15:55.007Z,1.72
2018-05-15T22:21:50.036Z,2.47
2018-05-15T22:27:45.065Z,1.91
2018-05-15T22:33:40.007Z,2.03
2018-05-15T22:39:35.053Z,2.09
2018-05-15T22:45:29.989Z,2.03
2018-05-15T22:51:25.030Z,2.08
2018-05-15T22:57:20.036Z,2.01
2018-05-15T23:03:15.046Z,2.7
2018-05-15T23:09:10.037Z,2.59
2018-05-15T23:15:05.171Z,2.48
2018-05-15T23:21:00.096Z,2.94
2018-05-15T23:26:55.058Z,2.68
2018-05-15T23:32:50.036Z,3.11
2018-05-15T23:38:45.063Z,3.15
2018-05-15T23:44:40.046Z,3.2
2018-05-15T23:50:35.106Z,2.64
2018-05-15T23:56:30.057Z,2.58
